Time;durP1;ratioP1;P1;durP2;ratioP2;P2;SDS_P1;SDS_P2;PMS_P1;PMS_P2;Temp;Humidity;BMP_temperature;BMP_pressure;BME280_temperature;BME280_humidity;BME280_pressure;Samples;Min_cycle;Max_cycle;Signal;HPM_P1;HPM_P2
2023/03/11 00:01:31;;;;;;;2.63;0.93;;;3.50;83.70;;;;;;5019110;28;20025;-66
2023/03/11 00:03:58;;;;;;;1.23;0.93;;;3.40;83.80;;;;;;5016342;28;20029;-63
2023/03/11 00:06:24;;;;;;;1.52;0.60;;;3.40;83.80;;;;;;5021821;28;20105;-69
2023/03/11 00:08:51;;;;;;;3.13;0.57;;;3.30;83.70;;;;;;5017913;28;20108;-69
2023/03/11 00:11:16;;;;;;;0.93;0.57;;;3.30;83.70;;;;;;5017757;28;20300;-69
2023/03/11 00:13:42;;;;;;;5.30;0.98;;;3.20;83.70;;;;;;5020539;28;20018;-71
2023/03/11 00:16:08;;;;;;;1.45;0.75;;;3.20;83.70;;;;;;5017491;28;20523;-69
2023/03/11 00:18:34;;;;;;;1.45;0.68;;;3.20;83.70;;;;;;5017753;28;20029;-70
2023/03/11 00:21:01;;;;;;;2.67;0.50;;;3.20;83.80;;;;;;5004555;28;20110;-70
2023/03/11 00:23:27;;;;;;;3.88;0.60;;;3.20;83.70;;;;;;4998971;28;20505;-70
2023/03/11 00:25:54;;;;;;;7.00;0.95;;;3.20;83.60;;;;;;4985226;28;20118;-69
2023/03/11 00:28:24;;;;;;;3.28;0.70;;;3.20;83.60;;;;;;4986154;28;20030;-69
2023/03/11 00:30:49;;;;;;;2.28;1.10;;;3.20;83.40;;;;;;5001174;28;20107;-69
2023/03/11 00:33:15;;;;;;;3.30;1.05;;;3.20;83.40;;;;;;4994533;28;20034;-69
2023/03/11 00:35:42;;;;;;;0.70;0.70;;;3.20;83.20;;;;;;4995600;28;21142;-71
2023/03/11 00:38:12;;;;;;;3.17;0.82;;;3.20;83.30;;;;;;4986830;28;20034;-69
2023/03/11 00:40:38;;;;;;;0.98;0.63;;;3.20;83.30;;;;;;4989598;28;20489;-64
2023/03/11 00:43:03;;;;;;;1.10;0.70;;;3.10;83.20;;;;;;4990617;28;20109;-64
2023/03/11 00:45:30;;;;;;;5.75;0.55;;;3.20;83.20;;;;;;4983869;28;20414;-65
2023/03/11 00:47:56;;;;;;;2.08;1.15;;;3.10;83.10;;;;;;4987578;28;20025;-64
2023/03/11 00:50:26;;;;;;;0.85;0.70;;;3.10;82.90;;;;;;4989470;28;20039;-63
2023/03/11 00:52:52;;;;;;;0.98;0.70;;;3.10;82.80;;;;;;4988965;28;20041;-64
2023/03/11 00:55:21;;;;;;;3.60;0.90;;;3.10;82.80;;;;;;4987744;28;20141;-70
2023/03/11 00:57:49;;;;;;;3.10;1.20;;;3.10;82.60;;;;;;4986632;28;20022;-69
2023/03/11 01:00:17;;;;;;;1.85;0.60;;;3.10;82.60;;;;;;4973639;28;20069;-64
2023/03/11 01:02:43;;;;;;;2.65;0.77;;;3.10;82.50;;;;;;4990798;28;20035;-64
2023/03/11 01:05:09;;;;;;;4.70;0.60;;;3.00;82.30;;;;;;4986420;28;20481;-64
2023/03/11 01:07:35;;;;;;;1.85;0.68;;;2.90;82.20;;;;;;4993707;28;20023;-68
2023/03/11 01:10:01;;;;;;;1.48;0.63;;;2.90;82.40;;;;;;4991820;28;20041;-64
2023/03/11 01:12:27;;;;;;;1.20;0.63;;;2.90;82.30;;;;;;4993780;28;20053;-62
2023/03/11 01:14:53;;;;;;;2.40;1.50;;;2.90;82.40;;;;;;4993857;28;20033;-64
2023/03/11 01:17:20;;;;;;;1.75;1.00;;;2.90;82.30;;;;;;4986716;28;20031;-68
2023/03/11 01:19:47;;;;;;;5.50;0.70;;;2.90;82.20;;;;;;4988096;28;20056;-69
2023/03/11 01:22:13;;;;;;;1.00;0.70;;;2.90;82.50;;;;;;4991357;28;20030;-70
2023/03/11 01:24:38;;;;;;;0.50;0.50;;;2.90;82.20;;;;;;5030093;28;20029;-62
2023/03/11 01:27:04;;;;;;;4.75;0.75;;;2.90;82.10;;;;;;5034067;28;20040;-64
2023/03/11 01:29:30;;;;;;;0.93;0.50;;;2.90;82.10;;;;;;5023531;28;20029;-69
2023/03/11 01:31:56;;;;;;;2.85;0.65;;;2.90;82.10;;;;;;5027661;28;20362;-64
2023/03/11 01:34:21;;;;;;;0.65;0.65;;;2.80;82.00;;;;;;5027090;28;20030;-64
2023/03/11 01:36:47;;;;;;;1.10;1.00;;;2.80;81.90;;;;;;5021886;28;20030;-70
2023/03/11 01:39:12;;;;;;;2.90;0.75;;;2.80;81.90;;;;;;5023390;28;20021;-69
2023/03/11 01:41:38;;;;;;;2.88;0.95;;;2.80;82.00;;;;;;5022940;28;20120;-70
2023/03/11 01:44:04;;;;;;;1.45;0.60;;;2.80;82.00;;;;;;5028578;28;20044;-69
2023/03/11 01:46:36;;;;;;;3.58;1.00;;;2.80;81.90;;;;;;5027725;28;20131;-69
2023/03/11 01:49:04;;;;;;;1.73;0.60;;;2.80;81.90;;;;;;5024492;28;20108;-63
2023/03/11 01:51:34;;;;;;;0.95;0.38;;;2.80;81.90;;;;;;5026265;28;20034;-65
2023/03/11 01:54:04;;;;;;;1.27;0.73;;;2.70;81.80;;;;;;5021772;28;20507;-64
2023/03/11 01:56:31;;;;;;;0.60;0.60;;;2.80;81.80;;;;;;5034417;28;20418;-69
2023/03/11 01:58:57;;;;;;;3.03;0.90;;;2.70;81.80;;;;;;5037234;28;20028;-68
2023/03/11 02:01:24;;;;;;;0.77;0.63;;;2.70;81.80;;;;;;5010937;28;20116;-71
2023/03/11 02:03:50;;;;;;;0.82;0.73;;;2.70;81.90;;;;;;5012199;28;20022;-71
2023/03/11 02:06:19;;;;;;;0.82;0.55;;;2.70;81.90;;;;;;5010886;28;20629;-63
2023/03/11 02:08:45;;;;;;;1.67;0.85;;;2.60;81.80;;;;;;5026347;28;20026;-66
2023/03/11 02:11:30;;;;;;;2.55;0.70;;;2.60;81.80;;;;;;5027071;28;20036;-64
2023/03/11 02:13:59;;;;;;;1.92;0.90;;;2.60;81.70;;;;;;5012835;28;20030;-64
2023/03/11 02:16:25;;;;;;;1.75;0.52;;;2.60;81.80;;;;;;5010144;28;20029;-63
2023/03/11 02:18:51;;;;;;;0.95;0.52;;;2.60;81.70;;;;;;5014914;28;20029;-63
2023/03/11 02:21:27;;;;;;;0.55;0.45;;;2.60;81.70;;;;;;5007967;28;20120;-71
2023/03/11 02:24:07;;;;;;;1.20;0.60;;;2.60;81.70;;;;;;5026292;28;20120;-71
2023/03/11 02:26:42;;;;;;;0.57;0.55;;;2.60;81.80;;;;;;5025165;28;20040;-63
2023/03/11 02:29:10;;;;;;;0.55;0.50;;;2.50;81.60;;;;;;5019327;28;20492;-63
2023/03/11 02:31:38;;;;;;;1.40;0.80;;;2.50;81.60;;;;;;5027059;28;20570;-64
2023/03/11 02:34:06;;;;;;;0.63;0.50;;;2.50;81.50;;;;;;5035618;28;20495;-71
2023/03/11 02:36:41;;;;;;;0.82;0.60;;;2.50;81.60;;;;;;5035109;28;20021;-71
2023/03/11 02:39:08;;;;;;;0.38;0.38;;;2.50;81.70;;;;;;5039697;28;20516;-71
2023/03/11 02:41:38;;;;;;;1.55;0.77;;;2.40;81.60;;;;;;5045695;28;20464;-62
2023/03/11 02:44:07;;;;;;;4.68;1.45;;;2.40;81.60;;;;;;5035187;28;20105;-63
2023/03/11 02:46:34;;;;;;;3.70;0.50;;;2.40;81.50;;;;;;5028584;28;20064;-63
2023/03/11 02:49:01;;;;;;;1.15;0.68;;;2.40;81.50;;;;;;5019724;28;20080;-71
2023/03/11 02:51:27;;;;;;;1.20;0.50;;;2.40;81.40;;;;;;5028505;28;20037;-63
2023/03/11 02:53:58;;;;;;;1.85;0.70;;;2.40;81.40;;;;;;5027331;28;20595;-63
2023/03/11 02:56:24;;;;;;;0.88;0.57;;;2.40;81.30;;;;;;5021884;28;20362;-63
2023/03/11 02:58:50;;;;;;;1.45;0.65;;;2.30;81.30;;;;;;5023642;28;20029;-70
2023/03/11 03:01:16;;;;;;;1.33;0.95;;;2.30;81.30;;;;;;5013106;28;20037;-70
2023/03/11 03:03:41;;;;;;;2.50;0.70;;;2.30;81.30;;;;;;5026744;28;20034;-71
2023/03/11 03:06:07;;;;;;;0.80;0.70;;;2.30;81.30;;;;;;5029359;28;20033;-69
2023/03/11 03:08:33;;;;;;;2.47;0.40;;;2.30;81.20;;;;;;5028423;28;20034;-63
2023/03/11 03:10:58;;;;;;;0.52;0.50;;;2.30;81.10;;;;;;5026248;28;20464;-63
2023/03/11 03:13:25;;;;;;;7.38;1.45;;;2.30;81.10;;;;;;5010108;28;20030;-71
2023/03/11 03:15:51;;;;;;;1.75;0.85;;;2.30;81.20;;;;;;5026025;28;20127;-71
2023/03/11 03:18:17;;;;;;;2.38;0.77;;;2.30;81.10;;;;;;5032100;28;20060;-72
2023/03/11 03:20:43;;;;;;;4.28;0.77;;;2.30;81.10;;;;;;5018274;28;20026;-71
2023/03/11 03:23:09;;;;;;;1.08;0.95;;;2.30;81.10;;;;;;5028645;28;20055;-63
2023/03/11 03:25:34;;;;;;;1.83;0.47;;;2.30;81.10;;;;;;5023239;28;20033;-64
2023/03/11 03:28:00;;;;;;;2.58;0.70;;;2.30;81.10;;;;;;5030533;28;20047;-64
2023/03/11 03:30:28;;;;;;;0.82;0.47;;;2.20;81.10;;;;;;5030385;28;20396;-64
2023/03/11 03:32:54;;;;;;;0.65;0.65;;;2.20;81.10;;;;;;5029891;28;20028;-63
2023/03/11 03:35:20;;;;;;;0.63;0.40;;;2.20;81.10;;;;;;5019266;28;20028;-64
2023/03/11 03:37:46;;;;;;;1.38;0.63;;;2.20;81.10;;;;;;5023588;28;20034;-63
2023/03/11 03:40:12;;;;;;;1.02;0.73;;;2.10;81.20;;;;;;5023991;28;20037;-71
2023/03/11 03:42:38;;;;;;;2.58;0.82;;;2.20;81.30;;;;;;5036731;28;20021;-71
2023/03/11 03:45:06;;;;;;;3.03;0.95;;;2.20;81.30;;;;;;5028427;28;20105;-70
2023/03/11 03:47:33;;;;;;;2.63;0.50;;;2.30;81.30;;;;;;5027785;28;20406;-71
2023/03/11 03:49:58;;;;;;;1.50;0.80;;;2.30;81.20;;;;;;5024089;28;20569;-71
2023/03/11 03:52:24;;;;;;;1.38;0.60;;;2.30;81.20;;;;;;5027240;28;20029;-71
2023/03/11 03:54:50;;;;;;;1.00;0.80;;;2.30;81.30;;;;;;5033713;28;20028;-65
2023/03/11 03:57:16;;;;;;;0.80;0.52;;;2.40;81.30;;;;;;5015319;28;20463;-63
2023/03/11 03:59:42;;;;;;;1.23;0.77;;;2.40;81.30;;;;;;5025575;28;20036;-63
2023/03/11 04:02:07;;;;;;;1.83;0.77;;;2.40;81.30;;;;;;5011875;28;20025;-63
2023/03/11 04:04:33;;;;;;;0.52;0.52;;;2.40;81.30;;;;;;5032968;28;20034;-63
2023/03/11 04:06:59;;;;;;;0.65;0.57;;;2.40;81.30;;;;;;5035497;28;20037;-64
2023/03/11 04:09:25;;;;;;;1.38;0.50;;;2.40;81.20;;;;;;5015472;28;20029;-63
2023/03/11 04:11:51;;;;;;;0.60;0.60;;;2.40;81.20;;;;;;5041302;28;20029;-64
2023/03/11 04:14:16;;;;;;;2.33;0.80;;;2.50;81.20;;;;;;5036182;28;20040;-63
2023/03/11 04:16:42;;;;;;;1.23;0.80;;;2.40;81.10;;;;;;5026265;28;20037;-64
2023/03/11 04:19:08;;;;;;;0.50;0.45;;;2.40;81.10;;;;;;5016126;28;20148;-63
2023/03/11 04:21:34;;;;;;;0.82;0.40;;;2.40;81.10;;;;;;5029546;28;20508;-63
2023/03/11 04:24:00;;;;;;;7.05;1.10;;;2.30;81.10;;;;;;5039786;28;20116;-63
2023/03/11 04:26:27;;;;;;;1.27;0.60;;;2.30;81.10;;;;;;5045663;28;20037;-63
2023/03/11 04:28:53;;;;;;;0.75;0.70;;;2.20;81.00;;;;;;5018636;28;20095;-70
2023/03/11 04:31:19;;;;;;;0.95;0.80;;;2.20;81.10;;;;;;5016798;28;20048;-63
2023/03/11 04:33:44;;;;;;;5.68;0.40;;;2.20;81.10;;;;;;5016699;28;20013;-65
2023/03/11 04:36:11;;;;;;;0.40;0.40;;;2.20;81.20;;;;;;5029943;28;20143;-70
2023/03/11 04:38:37;;;;;;;0.95;0.68;;;2.20;81.30;;;;;;5031690;28;20030;-63
2023/03/11 04:41:04;;;;;;;0.60;0.60;;;2.10;81.20;;;;;;5014781;28;20032;-70
2023/03/11 04:43:30;;;;;;;4.63;1.02;;;2.10;81.10;;;;;;5024446;28;20033;-70
2023/03/11 04:45:56;;;;;;;1.02;0.55;;;2.10;81.20;;;;;;4999828;28;20017;-70
2023/03/11 04:48:23;;;;;;;3.10;0.70;;;2.00;81.10;;;;;;5029820;28;20082;-70
2023/03/11 04:50:49;;;;;;;2.17;0.70;;;2.10;81.10;;;;;;5021068;28;20034;-70
2023/03/11 04:53:15;;;;;;;0.52;0.52;;;2.00;81.00;;;;;;5016978;28;20083;-63
2023/03/11 04:55:40;;;;;;;0.95;0.70;;;2.00;81.00;;;;;;5007692;28;20080;-63
2023/03/11 04:58:06;;;;;;;0.52;0.52;;;1.90;80.90;;;;;;5025538;28;20116;-64
2023/03/11 05:00:32;;;;;;;1.65;0.57;;;1.90;80.80;;;;;;5034289;28;20026;-64
2023/03/11 05:02:57;;;;;;;0.85;0.40;;;1.90;80.80;;;;;;5028878;28;20017;-63
2023/03/11 05:05:23;;;;;;;0.75;0.50;;;1.80;80.80;;;;;;5008675;28;20026;-70
2023/03/11 05:07:49;;;;;;;0.32;0.32;;;1.80;80.80;;;;;;5015882;28;20025;-70
2023/03/11 05:10:21;;;;;;;0.77;0.73;;;1.80;80.80;;;;;;5026875;28;20029;-70
2023/03/11 05:12:49;;;;;;;1.38;0.65;;;1.80;80.70;;;;;;5004404;28;20033;-69
2023/03/11 05:15:15;;;;;;;6.07;0.98;;;1.70;80.70;;;;;;5026113;28;20046;-63
2023/03/11 05:17:41;;;;;;;2.13;0.57;;;1.70;80.70;;;;;;5022757;28;20472;-63
2023/03/11 05:20:09;;;;;;;1.98;1.08;;;1.70;80.60;;;;;;5008728;28;20440;-64
2023/03/11 05:22:36;;;;;;;0.30;0.30;;;1.70;80.60;;;;;;5030293;28;20036;-63
2023/03/11 05:25:02;;;;;;;0.98;0.60;;;1.70;80.60;;;;;;5012055;28;20112;-63
2023/03/11 05:27:28;;;;;;;3.03;0.38;;;1.70;80.60;;;;;;5029545;28;20039;-62
2023/03/11 05:29:56;;;;;;;0.75;0.50;;;1.60;80.50;;;;;;5028851;28;20025;-63
2023/03/11 05:32:22;;;;;;;0.30;0.30;;;1.60;80.40;;;;;;5026614;28;20392;-63
2023/03/11 05:34:48;;;;;;;0.85;0.63;;;1.50;80.40;;;;;;5028135;28;20477;-63
2023/03/11 05:37:14;;;;;;;2.25;1.08;;;1.50;80.60;;;;;;5014965;28;20160;-69
2023/03/11 05:39:40;;;;;;;1.58;0.45;;;1.50;80.50;;;;;;5027053;28;20028;-70
2023/03/11 05:42:07;;;;;;;0.55;0.43;;;1.50;80.50;;;;;;5022139;28;20026;-70
2023/03/11 05:44:33;;;;;;;0.32;0.28;;;1.50;80.50;;;;;;5020137;28;20030;-70
2023/03/11 05:46:59;;;;;;;0.45;0.35;;;1.50;81.00;;;;;;5029346;28;20534;-69
2023/03/11 05:49:25;;;;;;;0.68;0.47;;;1.40;80.40;;;;;;5033772;28;20029;-69
2023/03/11 05:51:53;;;;;;;0.60;0.60;;;1.40;80.40;;;;;;5041233;28;20037;-64
2023/03/11 05:54:18;;;;;;;0.55;0.55;;;1.40;80.40;;;;;;5029984;28;20076;-63
2023/03/11 05:56:45;;;;;;;1.25;0.52;;;1.30;80.40;;;;;;5008529;28;20048;-69
2023/03/11 05:59:13;;;;;;;0.40;0.40;;;1.30;80.40;;;;;;4999522;28;20503;-70
2023/03/11 06:01:41;;;;;;;0.43;0.43;;;1.30;80.40;;;;;;4998912;28;20484;-70
2023/03/11 06:04:08;;;;;;;0.85;0.60;;;1.30;80.30;;;;;;5025098;28;20025;-69
2023/03/11 06:06:35;;;;;;;0.82;0.70;;;1.30;80.20;;;;;;5004910;28;20100;-70
2023/03/11 06:09:02;;;;;;;1.05;0.85;;;1.30;80.20;;;;;;5026160;28;20026;-71
2023/03/11 06:11:29;;;;;;;0.30;0.30;;;1.30;80.20;;;;;;5023518;28;20409;-72
2023/03/11 06:13:56;;;;;;;1.55;0.82;;;1.20;80.20;;;;;;5013029;28;20064;-71
2023/03/11 06:16:23;;;;;;;0.65;0.45;;;1.20;80.20;;;;;;5033206;28;20026;-73
2023/03/11 06:18:50;;;;;;;2.33;0.70;;;1.20;80.10;;;;;;5028461;28;20061;-70
2023/03/11 06:21:18;;;;;;;0.57;0.57;;;1.20;80.10;;;;;;5024206;28;20064;-69
2023/03/11 06:23:44;;;;;;;3.03;1.15;;;1.20;80.10;;;;;;4990071;28;20048;-70
2023/03/11 06:26:14;;;;;;;1.45;0.65;;;1.20;80.00;;;;;;5029485;28;20481;-72
2023/03/11 06:28:42;;;;;;;1.00;0.60;;;1.20;80.00;;;;;;5015046;28;20037;-70
2023/03/11 06:31:15;;;;;;;0.50;0.45;;;1.20;80.00;;;;;;5019177;28;20037;-71
2023/03/11 06:33:41;;;;;;;0.82;0.63;;;1.20;80.00;;;;;;5018114;28;20383;-70
2023/03/11 06:36:07;;;;;;;1.67;0.68;;;1.20;80.00;;;;;;5027647;28;20029;-70
2023/03/11 06:38:33;;;;;;;0.82;0.60;;;1.20;80.00;;;;;;5031307;28;20029;-63
2023/03/11 06:41:04;;;;;;;1.40;0.82;;;1.20;79.90;;;;;;5024222;28;20040;-63
2023/03/11 06:43:30;;;;;;;0.95;0.60;;;1.30;80.00;;;;;;5031912;28;20025;-63
2023/03/11 06:45:56;;;;;;;0.50;0.43;;;1.30;80.00;;;;;;5008863;28;20104;-63
2023/03/11 06:48:22;;;;;;;1.23;0.50;;;1.30;79.90;;;;;;4998192;28;20048;-62
2023/03/11 06:50:56;;;;;;;0.50;0.40;;;1.40;79.90;;;;;;5026246;28;20053;-63
2023/03/11 06:53:22;;;;;;;1.38;0.60;;;1.40;79.90;;;;;;5033778;28;20109;-63
2023/03/11 06:56:09;;;;;;;1.00;0.90;;;1.40;79.90;;;;;;5021348;28;20088;-63
2023/03/11 06:58:36;;;;;;;0.98;0.60;;;1.50;79.90;;;;;;5020826;28;20331;-62
2023/03/11 07:01:07;;;;;;;1.08;0.68;;;1.60;79.90;;;;;;5018963;28;20021;-62
2023/03/11 07:03:33;;;;;;;0.75;0.52;;;1.60;80.00;;;;;;5022334;28;20036;-62
2023/03/11 07:05:59;;;;;;;0.20;0.20;;;1.70;80.00;;;;;;5019328;28;20377;-63
2023/03/11 07:08:25;;;;;;;0.90;0.45;;;1.70;80.00;;;;;;5015068;28;20032;-61
2023/03/11 07:11:05;;;;;;;0.30;0.25;;;1.80;80.00;;;;;;5033317;28;20038;-62
2023/03/11 07:13:31;;;;;;;0.80;0.60;;;1.90;80.00;;;;;;5026198;28;20037;-63
2023/03/11 07:16:05;;;;;;;0.68;0.68;;;1.90;79.90;;;;;;5034410;28;20361;-63
2023/03/11 07:18:32;;;;;;;0.65;0.65;;;2.00;79.90;;;;;;5036014;28;20079;-62
2023/03/11 07:20:59;;;;;;;0.40;0.40;;;2.00;79.80;;;;;;5029219;28;20033;-64
2023/03/11 07:23:25;;;;;;;0.32;0.32;;;2.10;79.80;;;;;;5024508;28;20075;-63
2023/03/11 07:25:51;;;;;;;0.60;0.60;;;2.20;79.80;;;;;;5025504;28;20026;-70
2023/03/11 07:28:18;;;;;;;1.42;0.57;;;2.30;79.80;;;;;;5029468;28;20038;-63
2023/03/11 07:30:45;;;;;;;0.75;0.30;;;2.30;79.70;;;;;;5010213;28;20679;-63
2023/03/11 07:33:11;;;;;;;0.90;0.52;;;2.40;79.70;;;;;;5024735;28;20056;-62
2023/03/11 07:35:37;;;;;;;2.60;0.52;;;2.50;79.60;;;;;;5030511;28;20072;-70
2023/03/11 07:38:02;;;;;;;0.77;0.63;;;2.60;79.60;;;;;;5030258;28;20033;-70
2023/03/11 07:40:28;;;;;;;0.98;0.50;;;2.70;79.60;;;;;;5034677;28;20354;-70
2023/03/11 07:42:54;;;;;;;0.73;0.60;;;2.70;79.50;;;;;;5013914;28;20461;-69
2023/03/11 07:45:19;;;;;;;1.27;0.50;;;2.80;79.50;;;;;;5033668;28;20038;-70
2023/03/11 07:47:45;;;;;;;0.30;0.30;;;2.80;79.40;;;;;;5014376;28;20463;-63
2023/03/11 07:50:11;;;;;;;0.95;0.63;;;2.90;79.40;;;;;;5027474;28;20026;-63
2023/03/11 07:52:37;;;;;;;2.90;0.73;;;3.00;79.30;;;;;;5022077;28;20088;-62
2023/03/11 07:55:02;;;;;;;1.55;0.55;;;3.00;79.20;;;;;;5030011;28;20022;-61
2023/03/11 07:57:28;;;;;;;0.30;0.30;;;3.10;79.10;;;;;;5005078;28;20121;-69
2023/03/11 07:59:54;;;;;;;0.47;0.38;;;3.20;79.00;;;;;;5019218;28;20034;-67
2023/03/11 08:02:20;;;;;;;0.50;0.45;;;3.20;78.90;;;;;;5023412;28;20491;-67
2023/03/11 08:04:45;;;;;;;0.40;0.40;;;3.30;79.00;;;;;;5025412;28;21393;-64
2023/03/11 08:07:11;;;;;;;1.40;0.65;;;3.30;78.80;;;;;;5007560;28;20033;-64
2023/03/11 08:09:37;;;;;;;2.05;0.75;;;3.40;78.70;;;;;;5028746;28;20025;-73
2023/03/11 08:12:03;;;;;;;0.88;0.55;;;3.50;78.70;;;;;;5006875;28;20033;-73
2023/03/11 08:14:29;;;;;;;1.75;0.57;;;3.60;78.70;;;;;;5002963;28;20072;-62
2023/03/11 08:16:54;;;;;;;0.68;0.63;;;3.70;78.70;;;;;;5021368;28;20037;-64
2023/03/11 08:19:20;;;;;;;0.80;0.55;;;3.70;78.40;;;;;;5029896;28;20029;-64
2023/03/11 08:21:46;;;;;;;0.88;0.57;;;3.80;78.30;;;;;;5027261;28;20033;-64
2023/03/11 08:24:13;;;;;;;2.63;0.70;;;3.80;78.10;;;;;;5024275;28;20128;-73
2023/03/11 08:26:39;;;;;;;1.45;0.57;;;3.90;77.90;;;;;;5029961;28;20084;-64
2023/03/11 08:29:05;;;;;;;1.45;0.73;;;4.00;77.80;;;;;;5026850;28;20114;-64
2023/03/11 08:31:32;;;;;;;0.45;0.40;;;4.10;77.70;;;;;;5009614;28;20096;-74
2023/03/11 08:34:09;;;;;;;1.55;0.43;;;4.20;77.70;;;;;;5031640;28;20365;-74
2023/03/11 08:36:34;;;;;;;5.15;0.47;;;4.30;77.50;;;;;;5027956;28;20086;-73
2023/03/11 08:39:00;;;;;;;0.77;0.47;;;4.30;77.40;;;;;;5031132;28;20029;-73
2023/03/11 08:41:26;;;;;;;0.30;0.30;;;4.40;77.20;;;;;;5007513;28;20025;-74
2023/03/11 08:43:52;;;;;;;0.47;0.47;;;4.50;77.00;;;;;;5036930;28;20037;-73
2023/03/11 08:46:25;;;;;;;0.28;0.28;;;4.50;76.70;;;;;;4996779;28;20032;-73
2023/03/11 08:48:52;;;;;;;0.70;0.45;;;4.60;76.70;;;;;;5028454;28;20457;-73
2023/03/11 08:51:18;;;;;;;3.60;0.88;;;4.70;76.70;;;;;;5027145;28;20080;-73
2023/03/11 08:53:45;;;;;;;0.30;0.25;;;4.80;76.60;;;;;;5025082;28;20034;-61
2023/03/11 08:56:11;;;;;;;0.60;0.47;;;4.90;76.50;;;;;;5018592;28;20068;-62
2023/03/11 08:58:36;;;;;;;7.88;0.80;;;5.00;76.40;;;;;;5026854;28;20049;-61
2023/03/11 09:01:03;;;;;;;0.88;0.43;;;5.10;75.90;;;;;;5014542;28;20486;-61
2023/03/11 09:03:34;;;;;;;0.30;0.30;;;5.20;75.90;;;;;;5032757;28;20029;-62
2023/03/11 09:06:02;;;;;;;0.68;0.47;;;5.30;75.30;;;;;;5024234;28;20099;-62
2023/03/11 09:08:28;;;;;;;1.25;0.75;;;5.40;75.10;;;;;;5032325;28;20045;-62
2023/03/11 09:10:54;;;;;;;0.20;0.20;;;5.50;74.70;;;;;;5032296;28;20029;-62
2023/03/11 09:13:20;;;;;;;1.10;0.63;;;5.60;74.80;;;;;;5028584;28;20370;-62
2023/03/11 09:15:48;;;;;;;0.93;0.38;;;5.70;74.90;;;;;;5011413;28;20033;-63
2023/03/11 09:18:14;;;;;;;0.50;0.50;;;5.80;74.60;;;;;;5012287;28;20037;-64
2023/03/11 09:20:41;;;;;;;0.40;0.40;;;5.90;74.00;;;;;;5029471;28;20382;-64
2023/03/11 09:23:08;;;;;;;0.50;0.40;;;6.00;73.80;;;;;;5030678;28;20034;-63
2023/03/11 09:25:34;;;;;;;0.75;0.47;;;6.10;72.90;;;;;;5021325;28;20029;-65
2023/03/11 09:27:59;;;;;;;0.70;0.55;;;6.20;72.90;;;;;;5002612;28;20049;-64
2023/03/11 09:30:26;;;;;;;0.30;0.30;;;6.30;73.00;;;;;;5030734;28;20029;-64
2023/03/11 09:32:52;;;;;;;0.60;0.30;;;6.50;73.10;;;;;;5028470;28;20030;-63
2023/03/11 09:35:17;;;;;;;2.88;0.40;;;6.60;72.90;;;;;;5030726;28;20029;-64
2023/03/11 09:37:43;;;;;;;0.40;0.40;;;6.70;72.60;;;;;;5022609;28;20104;-64
2023/03/11 09:40:15;;;;;;;0.68;0.30;;;6.90;72.40;;;;;;5024400;28;20061;-65
2023/03/11 09:42:45;;;;;;;0.40;0.30;;;7.00;71.10;;;;;;5019231;28;20480;-76
2023/03/11 09:45:19;;;;;;;1.35;0.50;;;7.10;70.70;;;;;;5022108;28;20029;-74
2023/03/11 09:48:09;;;;;;;0.32;0.30;;;7.30;70.80;;;;;;5026739;28;20384;-74
2023/03/11 09:50:42;;;;;;;1.65;0.50;;;7.30;70.30;;;;;;5020885;28;20429;-72
2023/03/11 09:53:27;;;;;;;0.10;0.08;;;7.40;68.10;;;;;;5021751;28;20477;-73
2023/03/11 09:55:55;;;;;;;1.98;0.43;;;7.40;68.20;;;;;;5022224;28;20029;-62
2023/03/11 09:58:37;;;;;;;1.08;0.70;;;7.40;65.80;;;;;;5027149;28;20037;-63
2023/03/11 10:01:26;;;;;;;1.23;0.50;;;7.40;66.20;;;;;;5021123;28;20038;-62
2023/03/11 10:03:56;;;;;;;0.55;0.47;;;7.50;65.90;;;;;;5027111;28;20033;-62
2023/03/11 10:06:24;;;;;;;0.30;0.30;;;7.60;65.50;;;;;;5024910;28;20108;-72
2023/03/11 10:09:11;;;;;;;1.38;0.50;;;7.60;64.30;;;;;;5011292;28;20423;-72
2023/03/11 10:11:59;;;;;;;0.30;0.30;;;7.60;64.80;;;;;;5022826;28;20021;-73
2023/03/11 10:14:51;;;;;;;1.75;0.55;;;7.60;65.40;;;;;;5024889;28;20017;-72
2023/03/11 10:17:40;;;;;;;0.20;0.13;;;7.60;65.70;;;;;;5030679;28;20022;-72
2023/03/11 10:20:11;;;;;;;0.28;0.28;;;7.80;65.90;;;;;;5026166;28;20026;-73
2023/03/11 10:23:01;;;;;;;1.10;0.40;;;7.90;65.60;;;;;;5032947;28;20060;-73
2023/03/11 10:25:36;;;;;;;0.28;0.28;;;8.00;64.80;;;;;;5027195;28;20899;-71
2023/03/11 10:28:10;;;;;;;0.57;0.30;;;8.10;64.20;;;;;;5024924;28;20384;-72
2023/03/11 10:30:38;;;;;;;2.05;0.65;;;8.30;64.20;;;;;;5014535;28;20029;-71
2023/03/11 10:33:25;;;;;;;0.20;0.20;;;8.40;63.60;;;;;;5038642;28;20025;-72
2023/03/11 10:35:53;;;;;;;0.85;0.40;;;8.50;64.20;;;;;;5032183;28;20033;-73
2023/03/11 10:38:21;;;;;;;0.30;0.30;;;8.50;63.50;;;;;;5017573;28;20041;-72
2023/03/11 10:40:52;;;;;;;0.20;0.20;;;8.50;62.90;;;;;;5032768;28;20364;-72
2023/03/11 10:43:27;;;;;;;0.73;0.25;;;8.50;63.10;;;;;;5004189;28;20091;-72
2023/03/11 10:45:53;;;;;;;0.20;0.20;;;8.60;63.00;;;;;;5023596;28;20472;-72
2023/03/11 10:48:20;;;;;;;1.10;0.50;;;8.70;61.80;;;;;;5024271;28;20029;-73
2023/03/11 10:51:01;;;;;;;0.60;0.47;;;8.90;61.20;;;;;;5027908;28;20039;-72
2023/03/11 10:53:27;;;;;;;0.10;0.10;;;9.10;60.90;;;;;;5004199;28;20389;-72
2023/03/11 10:55:58;;;;;;;0.30;0.13;;;9.40;60.50;;;;;;5001859;28;20056;-73
2023/03/11 10:58:29;;;;;;;0.20;0.20;;;9.50;58.60;;;;;;5008983;28;20125;-73
2023/03/11 11:01:16;;;;;;;0.43;0.30;;;9.40;57.90;;;;;;5012687;28;20167;-63
2023/03/11 11:03:45;;;;;;;2.63;0.60;;;9.30;57.50;;;;;;5023349;28;20025;-62
2023/03/11 11:06:30;;;;;;;0.20;0.20;;;9.30;58.60;;;;;;5031875;28;20040;-62
2023/03/11 11:09:18;;;;;;;0.30;0.30;;;9.50;58.90;;;;;;5004140;28;20025;-62
2023/03/11 11:12:02;;;;;;;0.90;0.52;;;9.60;58.80;;;;;;5023950;28;20049;-61
2023/03/11 11:14:42;;;;;;;1.77;0.70;;;9.70;58.80;;;;;;5010256;28;20033;-61
2023/03/11 11:17:27;;;;;;;0.30;0.20;;;9.90;59.00;;;;;;5026023;28;20021;-62
2023/03/11 11:19:55;;;;;;;1.15;0.57;;;10.10;57.20;;;;;;5028200;28;20025;-74
2023/03/11 11:22:22;;;;;;;10.23;0.70;;;10.10;57.10;;;;;;5030781;28;20041;-63
2023/03/11 11:24:51;;;;;;;0.22;0.22;;;10.20;55.20;;;;;;5020400;28;20044;-62
2023/03/11 11:27:22;;;;;;;1.50;0.57;;;10.20;55.60;;;;;;5040037;28;20467;-63
2023/03/11 11:30:03;;;;;;;1.92;0.52;;;10.20;55.80;;;;;;5044012;28;20411;-62
2023/03/11 11:32:29;;;;;;;0.30;0.30;;;10.30;56.20;;;;;;5032824;28;20495;-72
2023/03/11 11:35:10;;;;;;;0.55;0.50;;;10.10;56.70;;;;;;5035532;28;20050;-62
2023/03/11 11:37:40;;;;;;;9.13;0.85;;;10.10;57.40;;;;;;5029648;28;20025;-71
2023/03/11 11:40:20;;;;;;;0.32;0.32;;;10.30;57.50;;;;;;5026340;28;20021;-72
2023/03/11 11:42:52;;;;;;;0.20;0.20;;;10.50;56.50;;;;;;5026629;28;20090;-62
2023/03/11 11:45:23;;;;;;;1.17;0.35;;;10.60;55.50;;;;;;5039437;28;20388;-63
2023/03/11 11:47:54;;;;;;;0.50;0.50;;;10.70;54.90;;;;;;5029460;28;20051;-62
2023/03/11 11:50:30;;;;;;;0.65;0.38;;;10.80;54.90;;;;;;5024852;28;20527;-62
2023/03/11 11:53:10;;;;;;;1.45;0.30;;;10.90;53.50;;;;;;5030098;28;20029;-63
2023/03/11 11:55:43;;;;;;;1.85;0.55;;;10.80;52.80;;;;;;5027936;28;20041;-62
2023/03/11 11:58:11;;;;;;;0.90;0.30;;;10.90;51.40;;;;;;5028124;28;20022;-63
2023/03/11 12:00:43;;;;;;;2.55;0.70;;;10.80;51.10;;;;;;5011974;28;20037;-62
2023/03/11 12:03:14;;;;;;;0.75;0.30;;;10.80;50.30;;;;;;5029503;28;20081;-63
2023/03/11 12:05:56;;;;;;;1.10;0.70;;;10.80;51.80;;;;;;5028388;28;20045;-63
2023/03/11 12:08:31;;;;;;;0.60;0.47;;;11.00;52.50;;;;;;5002925;28;20425;-64
2023/03/11 12:11:12;;;;;;;0.50;0.47;;;11.10;49.90;;;;;;5014619;28;20053;-63
2023/03/11 12:13:43;;;;;;;0.20;0.20;;;11.10;49.60;;;;;;5030424;28;20032;-62
2023/03/11 12:16:19;;;;;;;1.15;0.40;;;11.30;49.80;;;;;;5027625;28;20025;-63
2023/03/11 12:18:57;;;;;;;5.40;0.70;;;11.40;48.90;;;;;;5029518;28;20025;-62
2023/03/11 12:21:44;;;;;;;1.45;0.30;;;11.60;49.00;;;;;;5031519;28;20060;-63
2023/03/11 12:24:47;;;;;;;0.75;0.47;;;11.60;48.10;;;;;;5026852;28;20997;-63
2023/03/11 12:27:22;;;;;;;1.08;0.40;;;11.60;48.80;;;;;;5004684;28;20036;-62
2023/03/11 12:30:05;;;;;;;0.65;0.52;;;11.70;48.90;;;;;;5028560;28;20358;-73
2023/03/11 12:32:36;;;;;;;;;;;11.80;48.60;;;;;;5030340;28;20025;-73
2023/03/11 12:35:23;;;;;;;0.93;0.50;;;12.00;48.10;;;;;;5027363;28;19917;-73
2023/03/11 12:38:16;;;;;;;0.22;0.22;;;12.10;47.90;;;;;;5029943;28;20036;-62
2023/03/11 12:40:45;;;;;;;1.38;0.60;;;12.30;47.30;;;;;;5028865;28;20784;-62
2023/03/11 12:43:46;;;;;;;0.65;0.50;;;12.40;46.00;;;;;;5028039;28;20029;-62
2023/03/11 12:46:16;;;;;;;0.20;0.20;;;12.30;45.70;;;;;;5032575;28;20108;-62
2023/03/11 12:48:42;;;;;;;5.95;0.73;;;12.20;45.50;;;;;;5031934;28;20119;-72
2023/03/11 12:51:28;;;;;;;0.98;0.28;;;12.10;47.20;;;;;;5029026;28;20158;-62
2023/03/11 12:53:55;;;;;;;3.25;0.38;;;12.20;47.20;;;;;;4998371;28;20637;-72
2023/03/11 12:56:26;;;;;;;1.23;0.40;;;12.00;45.20;;;;;;5021042;28;20053;-72
2023/03/11 12:59:24;;;;;;;0.50;0.40;;;11.80;45.00;;;;;;5021928;28;20037;-72
2023/03/11 13:01:57;;;;;;;0.45;0.35;;;11.40;44.60;;;;;;5013158;28;20025;-62
2023/03/11 13:04:31;;;;;;;0.30;0.30;;;11.30;45.70;;;;;;5021157;28;20017;-62
2023/03/11 13:07:45;;;;;;;0.47;0.40;;;11.40;46.00;;;;;;5024264;28;20033;-61